Time;durP1;ratioP1;P1;durP2;ratioP2;P2;SDS_P1;SDS_P2;PMS_P1;PMS_P2;Temp;Humidity;BMP_temperature;BMP_pressure;BME280_temperature;BME280_humidity;BME280_pressure;Samples;Min_cycle;Max_cycle;Signal;HPM_P1;HPM_P2
2023/04/23 00:01:56;;;;;;;5.32;2.65;;;19.40;99.90;;;;;;4955837;28;20190;-80
2023/04/23 00:04:29;;;;;;;6.00;3.10;;;19.50;99.90;;;;;;4935563;29;20198;-80
2023/04/23 00:07:01;;;;;;;4.35;2.65;;;19.50;99.90;;;;;;4938334;29;20198;-80
2023/04/23 00:09:33;;;;;;;6.85;2.53;;;19.50;99.90;;;;;;4951518;28;20211;-81
2023/04/23 00:12:06;;;;;;;7.80;3.05;;;19.50;99.90;;;;;;4957002;28;20633;-77
2023/04/23 00:14:39;;;;;;;4.45;2.47;;;19.50;99.90;;;;;;4956545;29;20197;-78
2023/04/23 00:17:10;;;;;;;3.97;2.47;;;19.50;99.90;;;;;;4956312;28;20228;-78
2023/04/23 00:19:41;;;;;;;6.47;2.55;;;19.40;99.90;;;;;;4956318;28;20201;-78
2023/04/23 00:22:12;;;;;;;5.82;2.50;;;19.30;99.90;;;;;;4956473;28;20220;-81
2023/04/23 00:24:43;;;;;;;4.82;2.40;;;19.40;99.90;;;;;;4956121;28;20223;-81
2023/04/23 00:27:15;;;;;;;5.38;2.60;;;19.40;99.90;;;;;;4956339;29;20212;-78
2023/04/23 00:29:50;;;;;;;3.72;2.47;;;19.40;99.90;;;;;;4956590;29;20197;-78
2023/04/23 00:32:21;;;;;;;4.85;2.40;;;19.30;99.90;;;;;;4956014;28;20192;-81
2023/04/23 00:34:53;;;;;;;4.40;2.50;;;19.40;99.90;;;;;;4956178;29;20568;-78
2023/04/23 00:37:24;;;;;;;4.93;2.40;;;19.40;99.90;;;;;;4956136;29;20312;-79
2023/04/23 00:39:55;;;;;;;5.10;2.50;;;19.50;99.90;;;;;;4956400;29;20189;-78
2023/04/23 00:42:27;;;;;;;5.50;2.35;;;19.40;99.90;;;;;;4956148;29;20630;-80
2023/04/23 00:45:00;;;;;;;4.25;2.60;;;19.40;99.90;;;;;;4957187;28;20667;-77
2023/04/23 00:47:32;;;;;;;3.08;2.33;;;19.40;99.90;;;;;;4955674;28;20232;-81
2023/04/23 00:50:04;;;;;;;3.47;2.30;;;19.40;99.90;;;;;;4975307;28;20192;-82
2023/04/23 00:52:35;;;;;;;3.47;2.33;;;19.40;99.90;;;;;;4957484;28;20204;-81
2023/04/23 00:55:07;;;;;;;4.28;2.55;;;19.40;99.90;;;;;;4956028;28;20798;-80
2023/04/23 00:57:40;;;;;;;4.18;2.58;;;19.40;99.90;;;;;;4955794;29;20239;-80
2023/04/23 01:00:15;;;;;;;8.15;2.88;;;19.40;99.90;;;;;;4955855;29;20193;-79
2023/04/23 01:02:46;;;;;;;3.85;2.90;;;19.40;99.90;;;;;;4941990;29;20283;-82
2023/04/23 01:05:19;;;;;;;4.78;3.03;;;19.40;99.90;;;;;;4936598;29;20557;-81
2023/04/23 01:07:50;;;;;;;8.00;3.10;;;19.40;99.90;;;;;;4936814;29;20201;-83
2023/04/23 01:10:22;;;;;;;6.82;2.90;;;19.50;99.90;;;;;;4936907;29;20194;-82
2023/04/23 01:12:53;;;;;;;6.53;2.95;;;19.50;99.90;;;;;;4936395;29;20190;-81
2023/04/23 01:15:27;;;;;;;5.28;2.67;;;19.60;99.90;;;;;;4936057;29;20190;-82
2023/04/23 01:17:58;;;;;;;6.45;2.88;;;19.60;99.90;;;;;;4934777;29;20206;-83
2023/04/23 01:20:29;;;;;;;4.50;2.70;;;19.60;99.90;;;;;;4936357;29;20280;-82
2023/04/23 01:23:02;;;;;;;3.83;2.80;;;19.60;99.90;;;;;;4936273;29;20638;-79
2023/04/23 01:25:33;;;;;;;4.57;2.58;;;19.60;99.90;;;;;;4936144;29;20205;-82
2023/04/23 01:28:05;;;;;;;3.72;2.72;;;19.60;99.90;;;;;;4936191;29;20189;-83
2023/04/23 01:30:37;;;;;;;6.03;2.60;;;19.60;99.90;;;;;;4936016;29;20737;-83
2023/04/23 01:33:08;;;;;;;6.07;2.40;;;19.60;99.90;;;;;;4935866;29;20631;-83
2023/04/23 01:35:40;;;;;;;6.80;2.60;;;19.60;99.90;;;;;;4936028;29;20194;-81
2023/04/23 01:38:15;;;;;;;4.63;2.65;;;19.70;99.90;;;;;;4936170;29;20197;-83
2023/04/23 01:40:47;;;;;;;5.97;2.35;;;19.80;99.90;;;;;;4936102;29;20197;-81
2023/04/23 01:43:18;;;;;;;4.95;2.17;;;19.90;99.90;;;;;;4934983;29;20661;-82
2023/04/23 01:45:50;;;;;;;5.72;2.33;;;20.00;99.90;;;;;;4931031;29;20666;-81
2023/04/23 01:48:21;;;;;;;4.88;2.58;;;20.10;99.90;;;;;;4933023;29;20197;-82
2023/04/23 01:50:53;;;;;;;8.68;2.80;;;20.20;99.90;;;;;;4935920;29;20205;-82
2023/04/23 01:53:26;;;;;;;3.88;2.00;;;20.30;99.90;;;;;;4929705;29;20203;-81
2023/04/23 01:56:02;;;;;;;6.65;2.40;;;20.50;99.90;;;;;;4935021;29;20218;-82
2023/04/23 01:58:33;;;;;;;7.78;2.17;;;20.70;99.90;;;;;;4932600;29;20233;-81
2023/04/23 02:01:04;;;;;;;6.25;2.03;;;20.80;99.90;;;;;;4933589;29;20206;-80
2023/04/23 02:03:36;;;;;;;5.20;1.92;;;21.10;99.90;;;;;;4947197;29;20240;-81
2023/04/23 02:06:07;;;;;;;4.65;1.90;;;21.40;99.90;;;;;;4934266;29;20205;-81
2023/04/23 02:08:40;;;;;;;4.00;2.10;;;21.60;99.90;;;;;;4940227;29;20194;-80
2023/04/23 02:11:11;;;;;;;4.22;1.80;;;21.80;99.90;;;;;;4934526;29;20202;-82
2023/04/23 02:13:42;;;;;;;3.58;1.80;;;21.90;99.90;;;;;;4939260;29;20215;-80
2023/04/23 02:16:13;;;;;;;3.70;2.08;;;22.10;99.90;;;;;;4937918;29;20217;-80
2023/04/23 02:18:44;;;;;;;2.95;1.80;;;22.20;99.90;;;;;;4935576;29;20202;-80
2023/04/23 02:21:16;;;;;;;6.30;1.77;;;22.40;99.90;;;;;;4937804;29;20208;-80
2023/04/23 02:23:49;;;;;;;3.95;1.55;;;22.40;99.90;;;;;;4943615;29;20207;-80
2023/04/23 02:26:21;;;;;;;3.33;1.40;;;22.50;99.90;;;;;;4949338;29;20293;-81
2023/04/23 02:28:52;;;;;;;5.93;1.60;;;22.70;99.90;;;;;;4934453;29;20297;-81
2023/04/23 02:31:26;;;;;;;5.43;1.33;;;22.80;99.90;;;;;;4935646;29;20198;-81
2023/04/23 02:33:57;;;;;;;4.18;1.70;;;22.80;99.90;;;;;;4934169;29;20280;-83
2023/04/23 02:36:31;;;;;;;4.05;1.75;;;22.80;99.90;;;;;;4935025;29;20249;-82
2023/04/23 02:39:04;;;;;;;6.90;1.90;;;22.90;99.90;;;;;;4935108;29;20197;-83
2023/04/23 02:41:35;;;;;;;5.15;1.83;;;22.90;99.90;;;;;;4931336;29;20725;-80
2023/04/23 02:44:06;;;;;;;4.05;1.70;;;23.00;99.90;;;;;;4935086;29;20194;-83
2023/04/23 02:46:37;;;;;;;4.82;1.75;;;22.90;99.90;;;;;;4934428;29;20206;-81
2023/04/23 02:49:09;;;;;;;3.65;1.50;;;22.80;99.90;;;;;;4934125;29;20201;-80
2023/04/23 02:51:40;;;;;;;5.43;1.90;;;22.70;99.90;;;;;;4937185;29;20217;-83
2023/04/23 02:54:13;;;;;;;2.85;1.63;;;22.70;99.90;;;;;;4943628;29;20198;-82
2023/04/23 02:56:44;;;;;;;3.75;1.80;;;22.70;99.90;;;;;;4938811;29;20224;-81
2023/04/23 02:59:15;;;;;;;2.67;1.50;;;22.80;99.90;;;;;;4921140;29;20226;-80
2023/04/23 03:01:46;;;;;;;7.25;1.70;;;22.90;99.90;;;;;;4935703;29;20209;-83
2023/04/23 03:04:17;;;;;;;2.90;1.65;;;23.00;99.90;;;;;;4937419;29;20205;-81
2023/04/23 03:06:48;;;;;;;4.15;1.70;;;23.00;99.90;;;;;;4930704;29;20654;-82
2023/04/23 03:09:21;;;;;;;3.85;1.70;;;22.80;99.90;;;;;;4933434;29;20205;-84
2023/04/23 03:11:52;;;;;;;2.78;1.67;;;22.60;99.90;;;;;;4934527;29;20280;-84
2023/04/23 03:14:23;;;;;;;4.90;1.67;;;22.50;99.90;;;;;;4935391;29;20546;-83
2023/04/23 03:16:54;;;;;;;3.85;1.70;;;22.30;99.90;;;;;;4938287;29;20299;-79
2023/04/23 03:19:26;;;;;;;5.15;1.80;;;22.20;99.90;;;;;;4935857;29;20201;-82
2023/04/23 03:21:57;;;;;;;4.90;2.20;;;22.20;99.90;;;;;;4934485;29;20213;-83
2023/04/23 03:24:30;;;;;;;6.10;2.35;;;22.10;99.90;;;;;;4933102;29;20667;-81
2023/04/23 03:27:01;;;;;;;3.75;1.90;;;22.00;99.90;;;;;;4932661;29;20201;-86
2023/04/23 03:29:32;;;;;;;4.82;2.22;;;22.00;99.90;;;;;;4937345;29;20287;-81
2023/04/23 03:32:03;;;;;;;4.90;2.30;;;21.90;99.90;;;;;;4936540;29;20194;-80
2023/04/23 03:34:35;;;;;;;7.63;2.35;;;21.90;99.90;;;;;;4933877;29;21904;-82
2023/04/23 03:37:06;;;;;;;6.80;2.08;;;21.80;99.90;;;;;;4936914;29;20677;-81
2023/04/23 03:39:39;;;;;;;3.10;1.92;;;21.70;99.90;;;;;;4936485;29;20658;-82
2023/04/23 03:42:10;;;;;;;3.67;1.83;;;21.70;99.90;;;;;;4940919;29;20593;-80
2023/04/23 03:44:41;;;;;;;5.35;2.45;;;21.70;99.90;;;;;;4936286;29;20194;-80
2023/04/23 03:47:12;;;;;;;6.22;2.20;;;21.70;99.90;;;;;;4934432;29;20198;-83
2023/04/23 03:49:43;;;;;;;3.25;2.30;;;21.60;99.90;;;;;;4932439;29;20204;-79
2023/04/23 03:52:14;;;;;;;6.15;2.20;;;21.60;99.90;;;;;;4934263;29;20202;-82
2023/04/23 03:54:47;;;;;;;3.53;2.10;;;21.60;99.90;;;;;;4934195;29;20198;-81
2023/04/23 03:57:18;;;;;;;4.28;2.00;;;21.60;99.90;;;;;;4934692;29;20242;-80
2023/04/23 03:59:49;;;;;;;4.40;2.35;;;21.70;99.90;;;;;;4937067;29;20201;-79
2023/04/23 04:02:20;;;;;;;5.22;2.30;;;21.80;99.90;;;;;;4939968;29;20251;-80
2023/04/23 04:04:53;;;;;;;4.90;2.53;;;21.90;99.90;;;;;;4937631;29;20302;-84
2023/04/23 04:07:24;;;;;;;2.88;2.40;;;22.00;99.90;;;;;;4934613;29;20209;-81
2023/04/23 04:09:57;;;;;;;4.28;2.33;;;22.10;99.90;;;;;;4936380;29;20197;-81
2023/04/23 04:12:29;;;;;;;8.20;2.17;;;22.30;99.90;;;;;;4935395;29;20201;-78
2023/04/23 04:15:01;;;;;;;4.07;2.00;;;22.50;99.90;;;;;;4933182;29;20212;-80
2023/04/23 04:17:32;;;;;;;3.78;2.25;;;22.70;99.90;;;;;;4931578;29;20307;-83
2023/04/23 04:20:03;;;;;;;4.32;2.22;;;22.70;99.90;;;;;;4933513;29;20690;-85
2023/04/23 04:22:35;;;;;;;5.55;2.20;;;22.60;99.90;;;;;;4936037;29;20201;-81
2023/04/23 04:25:08;;;;;;;3.72;2.30;;;22.50;99.90;;;;;;4936773;29;20197;-83
2023/04/23 04:27:40;;;;;;;4.30;2.30;;;22.30;99.90;;;;;;4920398;29;20557;-81
2023/04/23 04:30:12;;;;;;;3.88;2.15;;;22.20;99.90;;;;;;4930594;29;20202;-80
2023/04/23 04:32:44;;;;;;;4.50;1.80;;;22.20;99.90;;;;;;4936257;29;20217;-80
2023/04/23 04:35:15;;;;;;;7.07;2.53;;;22.20;99.90;;;;;;4936752;29;20193;-82
2023/04/23 04:37:46;;;;;;;8.25;2.30;;;22.30;99.90;;;;;;4933456;29;20232;-79
2023/04/23 04:40:19;;;;;;;4.07;2.10;;;22.30;99.90;;;;;;4934574;29;20209;-85
2023/04/23 04:42:51;;;;;;;3.10;2.00;;;22.10;99.90;;;;;;4936634;29;20197;-81
2023/04/23 04:45:22;;;;;;;4.10;2.42;;;22.00;99.90;;;;;;4932737;29;20554;-78
2023/04/23 04:47:53;;;;;;;3.45;2.40;;;22.00;99.90;;;;;;4923602;29;20547;-80
2023/04/23 04:50:25;;;;;;;3.75;2.33;;;21.90;99.90;;;;;;4934835;29;20566;-81
2023/04/23 04:52:56;;;;;;;4.97;2.15;;;21.80;99.90;;;;;;4935490;29;20249;-82
2023/04/23 04:55:29;;;;;;;3.45;2.28;;;21.80;99.90;;;;;;4932921;29;20200;-81
2023/04/23 04:58:00;;;;;;;3.13;1.90;;;21.80;99.90;;;;;;4936545;29;20689;-83
2023/04/23 05:00:32;;;;;;;6.53;2.55;;;21.70;99.90;;;;;;4934619;29;20665;-81
2023/04/23 05:03:03;;;;;;;3.03;1.92;;;21.60;99.90;;;;;;4932008;29;20241;-81
2023/04/23 05:05:35;;;;;;;4.28;2.53;;;21.60;99.90;;;;;;4927697;29;20257;-81
2023/04/23 05:08:09;;;;;;;5.05;2.10;;;21.60;99.90;;;;;;4932680;29;20682;-80
2023/04/23 05:10:42;;;;;;;4.13;1.98;;;21.50;99.90;;;;;;4929210;29;20213;-81
2023/04/23 05:13:13;;;;;;;5.10;1.80;;;21.40;99.90;;;;;;4924630;29;20202;-81
2023/04/23 05:15:44;;;;;;;4.50;2.20;;;21.40;99.90;;;;;;4927018;29;20744;-79
2023/04/23 05:18:16;;;;;;;8.32;2.40;;;21.40;99.90;;;;;;4917837;29;20610;-80
2023/04/23 05:20:47;;;;;;;2.85;2.05;;;21.30;99.90;;;;;;4917367;29;20206;-79
2023/04/23 05:23:18;;;;;;;4.20;2.20;;;21.30;99.90;;;;;;4927708;29;20208;-81
2023/04/23 05:25:52;;;;;;;4.15;2.40;;;21.30;99.90;;;;;;4930370;29;20197;-81
2023/04/23 05:28:23;;;;;;;5.10;2.53;;;21.30;99.90;;;;;;4932930;29;20201;-80
2023/04/23 05:30:54;;;;;;;5.28;2.47;;;21.30;99.90;;;;;;4935455;29;20705;-81
2023/04/23 05:33:25;;;;;;;2.90;2.40;;;21.30;99.90;;;;;;4940902;29;20197;-81
2023/04/23 05:35:56;;;;;;;4.10;2.33;;;21.30;99.90;;;;;;4936668;29;20252;-81
2023/04/23 05:38:30;;;;;;;3.15;2.50;;;21.20;99.90;;;;;;4930550;29;20566;-81
2023/04/23 05:41:03;;;;;;;4.55;2.55;;;21.20;99.90;;;;;;4933238;29;20213;-81
2023/04/23 05:43:34;;;;;;;5.53;2.45;;;21.20;99.90;;;;;;4932573;29;20244;-81
2023/04/23 05:46:06;;;;;;;4.80;2.78;;;21.20;99.90;;;;;;4933760;29;20205;-80
2023/04/23 05:48:37;;;;;;;4.78;2.88;;;21.20;99.90;;;;;;4936056;29;20226;-81
2023/04/23 05:51:08;;;;;;;5.05;3.13;;;21.10;99.90;;;;;;4942204;29;20586;-81
2023/04/23 05:53:39;;;;;;;4.63;2.95;;;21.10;99.90;;;;;;4947219;29;20560;-79
2023/04/23 05:56:12;;;;;;;5.65;3.15;;;21.10;99.90;;;;;;4934333;29;20208;-82
2023/04/23 05:58:43;;;;;;;4.70;3.08;;;21.10;99.90;;;;;;4935609;29;20217;-81
2023/04/23 06:01:15;;;;;;;5.03;3.28;;;21.00;99.90;;;;;;4935910;29;20205;-81
2023/04/23 06:03:46;;;;;;;6.13;3.45;;;21.00;99.90;;;;;;4935756;29;20236;-81
2023/04/23 06:06:17;;;;;;;8.23;3.80;;;21.00;99.90;;;;;;4935127;29;20240;-82
2023/04/23 06:08:49;;;;;;;6.63;3.60;;;21.00;99.90;;;;;;4935589;29;20194;-79
2023/04/23 06:11:23;;;;;;;6.20;3.47;;;20.90;99.90;;;;;;4935749;29;20705;-83
2023/04/23 06:13:55;;;;;;;4.60;3.03;;;20.90;99.90;;;;;;4932829;29;20252;-84
2023/04/23 06:16:26;;;;;;;5.93;3.60;;;20.90;99.90;;;;;;4935509;29;20257;-83
2023/04/23 06:18:57;;;;;;;8.40;4.25;;;20.90;99.90;;;;;;4935495;29;20233;-84
2023/04/23 06:21:29;;;;;;;11.32;4.32;;;20.80;99.90;;;;;;4935603;29;20276;-80
2023/04/23 06:24:00;;;;;;;6.55;4.03;;;20.80;99.90;;;;;;4940055;29;20200;-84
2023/04/23 06:26:33;;;;;;;8.18;3.88;;;20.80;99.90;;;;;;4954629;29;20208;-84
2023/04/23 06:29:04;;;;;;;8.75;3.80;;;20.80;99.90;;;;;;4954718;28;20201;-83
2023/04/23 06:31:35;;;;;;;7.45;3.70;;;20.80;99.90;;;;;;4958419;29;20197;-83
2023/04/23 06:34:06;;;;;;;7.82;3.50;;;20.80;99.90;;;;;;4934912;29;20205;-83
2023/04/23 06:36:37;;;;;;;5.95;3.35;;;20.80;99.90;;;;;;4938853;29;20190;-84
2023/04/23 06:39:09;;;;;;;10.07;3.72;;;20.70;99.90;;;;;;4938884;29;20233;-84
2023/04/23 06:41:42;;;;;;;7.60;3.97;;;20.70;99.90;;;;;;4939173;29;20198;-84
2023/04/23 06:44:13;;;;;;;6.65;3.72;;;20.70;99.90;;;;;;4939035;29;20200;-82
2023/04/23 06:46:44;;;;;;;8.52;3.85;;;20.70;99.90;;;;;;4938760;29;20194;-83
2023/04/23 06:49:15;;;;;;;8.82;3.80;;;20.60;99.90;;;;;;4932642;29;20258;-82
2023/04/23 06:51:47;;;;;;;7.85;4.00;;;20.60;99.90;;;;;;4935742;29;20201;-82
2023/04/23 06:54:18;;;;;;;5.65;3.70;;;20.60;99.90;;;;;;4938421;29;20646;-81
2023/04/23 06:56:51;;;;;;;7.50;4.20;;;20.50;99.90;;;;;;4932527;29;20225;-80
2023/04/23 06:59:22;;;;;;;5.45;4.00;;;20.50;99.90;;;;;;4927849;29;20221;-81
2023/04/23 07:01:53;;;;;;;8.32;4.72;;;20.40;99.90;;;;;;4937675;29;20205;-81
2023/04/23 07:04:24;;;;;;;6.72;4.28;;;20.30;99.90;;;;;;4952307;29;20220;-82
2023/04/23 07:06:55;;;;;;;6.25;4.55;;;20.30;99.90;;;;;;4954039;29;20200;-80
2023/04/23 07:09:26;;;;;;;5.70;4.32;;;20.20;99.90;;;;;;4957714;29;20201;-81
2023/04/23 07:12:00;;;;;;;11.27;4.25;;;20.20;99.90;;;;;;4954141;29;20204;-81
2023/04/23 07:14:31;;;;;;;5.18;4.47;;;20.20;99.90;;;;;;4955803;29;20240;-81
2023/04/23 07:17:02;;;;;;;8.68;4.25;;;20.20;99.90;;;;;;4955024;29;20570;-81
2023/04/23 07:19:33;;;;;;;7.20;4.10;;;20.20;99.90;;;;;;4946113;29;20217;-80
2023/04/23 07:22:05;;;;;;;7.25;4.18;;;20.10;99.90;;;;;;4956419;28;20201;-80
2023/04/23 07:24:36;;;;;;;9.07;3.88;;;20.20;99.90;;;;;;4954572;28;20267;-81
2023/04/23 07:27:09;;;;;;;6.20;4.18;;;20.20;99.90;;;;;;4955489;29;20201;-82
2023/04/23 07:29:40;;;;;;;6.63;4.00;;;20.20;99.90;;;;;;4953753;29;20201;-80
2023/04/23 07:32:11;;;;;;;5.43;4.00;;;20.20;99.90;;;;;;4954091;29;20205;-82
2023/04/23 07:34:42;;;;;;;6.97;4.20;;;20.20;99.90;;;;;;4944977;29;20204;-82
2023/04/23 07:37:13;;;;;;;7.32;3.85;;;20.20;99.90;;;;;;4955559;29;20567;-82
2023/04/23 07:39:44;;;;;;;7.43;3.90;;;20.20;99.90;;;;;;4953915;29;20606;-82
2023/04/23 07:42:17;;;;;;;5.57;3.75;;;20.20;99.90;;;;;;4951488;28;20316;-82
2023/04/23 07:44:48;;;;;;;6.00;3.58;;;20.20;99.90;;;;;;4952977;29;20205;-82
2023/04/23 07:47:19;;;;;;;6.65;4.10;;;20.20;99.90;;;;;;4953537;28;20213;-82
2023/04/23 07:49:50;;;;;;;9.57;4.03;;;20.20;99.90;;;;;;4955259;29;20200;-82
2023/04/23 07:52:21;;;;;;;4.60;3.67;;;20.30;99.90;;;;;;4951735;29;20200;-81
2023/04/23 07:54:52;;;;;;;5.50;3.70;;;20.30;99.90;;;;;;4950543;28;20201;-83
2023/04/23 07:57:28;;;;;;;8.55;3.70;;;20.30;99.90;;;;;;4954997;28;20236;-83
2023/04/23 07:59:59;;;;;;;5.95;3.72;;;20.30;99.90;;;;;;4956152;29;20193;-83
2023/04/23 08:02:30;;;;;;;5.75;3.90;;;20.30;99.90;;;;;;4945985;29;20994;-84
2023/04/23 08:05:01;;;;;;;5.85;3.50;;;20.30;99.90;;;;;;4937544;29;20201;-82
2023/04/23 08:07:33;;;;;;;8.57;3.75;;;20.30;99.90;;;;;;4937504;29;20253;-85
2023/04/23 08:10:05;;;;;;;5.63;3.70;;;20.20;99.90;;;;;;4935485;29;20194;-82
2023/04/23 08:12:38;;;;;;;7.57;3.97;;;20.20;99.90;;;;;;4935340;29;20213;-82
2023/04/23 08:15:10;;;;;;;6.13;3.83;;;20.20;99.90;;;;;;4935077;29;20209;-82
2023/04/23 08:17:41;;;;;;;6.43;3.75;;;20.20;99.90;;;;;;4934675;29;20197;-83
2023/04/23 08:20:12;;;;;;;6.13;3.50;;;20.20;99.90;;;;;;4936764;29;20201;-82
2023/04/23 08:22:43;;;;;;;6.03;3.40;;;20.30;99.90;;;;;;4926613;29;20217;-81
2023/04/23 08:25:14;;;;;;;6.57;3.65;;;20.30;99.90;;;;;;4935885;29;20210;-80
2023/04/23 08:27:47;;;;;;;5.57;3.80;;;20.30;99.90;;;;;;4930301;29;20198;-81
2023/04/23 08:30:19;;;;;;;6.32;3.80;;;20.30;99.90;;;;;;4931424;29;20659;-82
2023/04/23 08:32:52;;;;;;;7.05;3.80;;;20.30;99.90;;;;;;4920869;29;20214;-81
2023/04/23 08:35:23;;;;;;;6.82;3.65;;;20.30;99.90;;;;;;4933623;29;20217;-81
2023/04/23 08:37:54;;;;;;;5.80;3.88;;;20.30;99.90;;;;;;4929502;29;20216;-80
2023/04/23 08:40:28;;;;;;;6.18;3.58;;;20.30;99.90;;;;;;4927552;29;20257;-81
2023/04/23 08:43:03;;;;;;;6.90;3.70;;;20.30;99.90;;;;;;4933786;29;20202;-80
2023/04/23 08:45:40;;;;;;;10.30;3.97;;;20.30;99.90;;;;;;4934477;29;20220;-82
2023/04/23 08:48:13;;;;;;;5.35;3.50;;;20.20;99.90;;;;;;4933926;29;20228;-80
2023/04/23 08:50:46;;;;;;;6.00;3.95;;;20.20;99.90;;;;;;4924921;29;20632;-82
2023/04/23 08:53:21;;;;;;;7.63;4.10;;;20.20;99.90;;;;;;4934964;29;20198;-82
2023/04/23 08:55:53;;;;;;;6.85;3.63;;;20.20;99.90;;;;;;4930933;29;20208;-81
2023/04/23 08:58:27;;;;;;;8.45;3.53;;;20.20;99.90;;;;;;4927643;29;20233;-81
2023/04/23 09:01:00;;;;;;;6.20;3.63;;;20.20;99.90;;;;;;4929316;29;20206;-81
2023/04/23 09:03:32;;;;;;;6.78;3.65;;;20.20;99.90;;;;;;4951026;29;20241;-82
2023/04/23 09:06:04;;;;;;;6.28;3.50;;;20.20;99.90;;;;;;4953730;29;20208;-82
2023/04/23 09:08:35;;;;;;;6.82;3.33;;;20.20;99.90;;;;;;4954674;29;20205;-82
2023/04/23 09:11:08;;;;;;;4.65;3.30;;;20.20;99.90;;;;;;4942155;29;20214;-82
2023/04/23 09:13:42;;;;;;;6.05;3.42;;;20.20;99.90;;;;;;4934423;28;20232;-79
2023/04/23 09:16:13;;;;;;;5.75;3.42;;;20.20;99.90;;;;;;4943780;29;20327;-81
2023/04/23 09:18:45;;;;;;;5.18;3.35;;;20.30;99.90;;;;;;4953445;28;20225;-82
2023/04/23 09:21:17;;;;;;;6.57;3.70;;;20.20;99.90;;;;;;4950798;29;20200;-82
2023/04/23 09:23:48;;;;;;;7.28;3.60;;;20.30;99.90;;;;;;4953102;28;20208;-80
2023/04/23 09:26:22;;;;;;;5.65;3.60;;;20.20;99.90;;;;;;4954241;28;20205;-82
2023/04/23 09:28:55;;;;;;;7.75;3.92;;;20.20;99.90;;;;;;4954122;28;20260;-82
2023/04/23 09:31:27;;;;;;;4.82;3.50;;;20.30;99.90;;;;;;4954184;28;20197;-83
2023/04/23 09:33:58;;;;;;;6.15;3.30;;;20.30;99.90;;;;;;4948940;29;20196;-81
2023/04/23 09:36:29;;;;;;;7.20;3.33;;;20.30;99.90;;;;;;4944336;28;20209;-82
2023/04/23 09:39:02;;;;;;;6.03;3.58;;;20.30;99.90;;;;;;4954894;28;20224;-82
2023/04/23 09:41:33;;;;;;;9.88;3.92;;;20.30;99.90;;;;;;4950023;28;20209;-81
2023/04/23 09:44:06;;;;;;;7.78;3.58;;;20.30;99.90;;;;;;4952282;28;20219;-81
2023/04/23 09:46:39;;;;;;;7.18;3.83;;;20.30;99.90;;;;;;4953502;28;20675;-81
2023/04/23 09:49:10;;;;;;;6.72;3.80;;;20.30;99.90;;;;;;4967240;28;20203;-81
2023/04/23 09:51:42;;;;;;;7.35;4.10;;;20.20;99.90;;;;;;4941631;28;20197;-81
2023/04/23 09:54:18;;;;;;;6.05;3.80;;;20.20;99.90;;;;;;4947741;29;20197;-81
2023/04/23 09:56:55;;;;;;;6.40;3.80;;;20.20;99.90;;;;;;4952529;28;20594;-82
2023/04/23 09:59:32;;;;;;;11.68;4.40;;;20.10;99.90;;;;;;4952299;29;20225;-80
2023/04/23 10:02:06;;;;;;;6.22;4.07;;;20.10;99.90;;;;;;4950008;28;20225;-80
2023/04/23 10:04:37;;;;;;;7.32;4.57;;;20.00;99.90;;;;;;4955699;28;20211;-79
2023/04/23 10:07:12;;;;;;;9.13;4.75;;;19.80;99.90;;;;;;4954692;28;20197;-79
2023/04/23 10:09:44;;;;;;;7.03;4.93;;;19.70;99.90;;;;;;4955184;29;20279;-79
2023/04/23 10:12:16;;;;;;;7.72;4.80;;;19.60;99.90;;;;;;4959206;28;20693;-79
2023/04/23 10:14:52;;;;;;;7.78;5.18;;;19.50;99.90;;;;;;4955903;28;20673;-79
2023/04/23 10:17:23;;;;;;;7.13;5.00;;;19.40;99.90;;;;;;4953344;28;20196;-79
2023/04/23 10:19:56;;;;;;;11.13;5.45;;;19.40;99.90;;;;;;4957526;29;20221;-79
2023/04/23 10:22:30;;;;;;;12.23;5.43;;;19.40;99.90;;;;;;4955416;28;20216;-79
2023/04/23 10:25:07;;;;;;;9.57;4.95;;;19.40;99.90;;;;;;4956243;28;20207;-79
2023/04/23 10:27:41;;;;;;;12.63;5.40;;;19.40;99.90;;;;;;4956866;29;20283;-79
2023/04/23 10:30:16;;;;;;;10.18;4.65;;;19.40;99.90;;;;;;4953850;29;20197;-79
2023/04/23 10:32:48;;;;;;;8.48;4.30;;;19.40;99.90;;;;;;4950426;29;20204;-79
2023/04/23 10:35:19;;;;;;;10.57;4.60;;;19.30;99.90;;;;;;4955609;29;20193;-78
2023/04/23 10:37:50;;;;;;;10.82;3.88;;;19.30;99.90;;;;;;4938627;29;20204;-79
2023/04/23 10:40:28;;;;;;;6.22;3.60;;;19.30;99.90;;;;;;4951953;29;20221;-79
2023/04/23 10:42:59;;;;;;;11.68;4.03;;;19.40;99.90;;;;;;4972247;28;20203;-80
2023/04/23 10:45:33;;;;;;;7.65;3.47;;;19.30;99.90;;;;;;4956492;29;20205;-79
2023/04/23 10:48:05;;;;;;;10.73;3.65;;;19.30;99.90;;;;;;4961630;28;20192;-79
2023/04/23 10:50:40;;;;;;;11.10;3.65;;;19.30;99.90;;;;;;4954054;28;20724;-78
2023/04/23 10:53:22;;;;;;;8.23;3.58;;;19.30;99.90;;;;;;4953347;29;20251;-78
2023/04/23 10:56:06;;;;;;;11.98;4.03;;;19.30;99.90;;;;;;4953029;28;20296;-78
2023/04/23 10:58:51;;;;;;;9.70;3.60;;;19.30;99.90;;;;;;4956114;29;20211;-80
2023/04/23 11:01:28;;;;;;;7.57;3.20;;;19.30;99.90;;;;;;4956188;29;20204;-80
2023/04/23 11:04:00;;;;;;;7.72;3.58;;;19.30;99.90;;;;;;4956699;29;20236;-79
2023/04/23 11:06:55;;;;;;;9.80;3.40;;;19.30;99.90;;;;;;4955965;28;20203;-79
2023/04/23 11:09:34;;;;;;;7.28;3.38;;;19.30;99.90;;;;;;4949586;28;20220;-79
2023/04/23 11:12:07;;;;;;;8.50;2.90;;;19.40;99.90;;;;;;4955987;29;20204;-79
2023/04/23 11:14:43;;;;;;;6.88;3.00;;;19.30;99.90;;;;;;4952858;29;20197;-79
2023/04/23 11:17:19;;;;;;;7.90;3.30;;;19.30;99.90;;;;;;4968941;28;20209;-79
2023/04/23 11:20:12;;;;;;;9.75;3.40;;;19.30;99.90;;;;;;4958962;28;20589;-79
2023/04/23 11:22:46;;;;;;;5.07;3.20;;;19.30;99.90;;;;;;4952431;28;20200;-79
2023/04/23 11:25:17;;;;;;;9.75;3.80;;;19.20;99.90;;;;;;4976592;28;20278;-79
2023/04/23 11:27:49;;;;;;;8.07;2.95;;;19.30;99.90;;;;;;4976819;28;20205;-79
2023/04/23 11:30:22;;;;;;;16.13;3.13;;;19.20;99.90;;;;;;4976848;28;20200;-80
2023/04/23 11:32:56;;;;;;;9.50;2.78;;;19.30;99.90;;;;;;4958205;28;20219;-79
2023/04/23 11:35:29;;;;;;;5.75;2.50;;;19.30;99.90;;;;;;4957180;29;20209;-80
2023/04/23 11:38:00;;;;;;;6.63;2.80;;;19.30;99.90;;;;;;4957241;28;20204;-79
2023/04/23 11:40:34;;;;;;;9.30;2.88;;;19.30;99.90;;;;;;4956778;29;20217;-79
2023/04/23 11:43:05;;;;;;;10.20;2.90;;;19.30;99.90;;;;;;4976023;28;20566;-81
2023/04/23 11:45:36;;;;;;;5.65;2.78;;;19.30;99.90;;;;;;4976548;28;20648;-79
2023/04/23 11:48:09;;;;;;;11.55;3.00;;;19.30;99.90;;;;;;4960352;28;20196;-78
2023/04/23 11:50:43;;;;;;;9.68;3.05;;;19.30;99.90;;;;;;4953787;28;20672;-78
2023/04/23 11:53:15;;;;;;;10.68;3.30;;;19.20;99.90;;;;;;4954533;29;20594;-78
2023/04/23 11:55:46;;;;;;;9.05;2.67;;;19.20;99.90;;;;;;4958444;28;20594;-78
2023/04/23 11:58:20;;;;;;;7.03;3.08;;;19.10;99.90;;;;;;4963144;28;20223;-78
2023/04/23 12:00:58;;;;;;;8.93;3.10;;;19.10;99.90;;;;;;4951472;29;20232;-78
2023/04/23 12:03:31;;;;;;;9.93;3.20;;;19.10;99.90;;;;;;4954748;29;20240;-78
2023/04/23 12:06:02;;;;;;;6.72;2.63;;;19.00;99.90;;;;;;4942195;28;20668;-78
2023/04/23 12:08:39;;;;;;;7.63;2.80;;;19.00;99.90;;;;;;4953495;28;20562;-78
2023/04/23 12:11:10;;;;;;;9.13;3.08;;;19.00;99.90;;;;;;4949210;29;20204;-78
2023/04/23 12:13:43;;;;;;;8.02;2.85;;;19.00;99.90;;;;;;4956319;29;20201;-78
2023/04/23 12:16:14;;;;;;;9.77;3.00;;;19.00;99.90;;;;;;4957147;29;20196;-78
2023/04/23 12:18:47;;;;;;;6.20;2.65;;;19.00;99.90;;;;;;4956869;28;20197;-78
2023/04/23 12:21:18;;;;;;;7.35;2.88;;;18.90;99.90;;;;;;4955270;28;20204;-78
2023/04/23 12:23:54;;;;;;;5.90;2.63;;;18.90;99.90;;;;;;4954108;29;20201;-78
2023/04/23 12:26:26;;;;;;;9.52;3.20;;;18.90;99.90;;;;;;4954498;28;20569;-78
2023/04/23 12:28:58;;;;;;;6.03;2.70;;;18.80;99.90;;;;;;4953300;29;20205;-78
2023/04/23 12:31:31;;;;;;;6.90;2.78;;;18.80;99.90;;;;;;4956179;29;20649;-78
2023/04/23 12:34:06;;;;;;;7.57;2.55;;;18.70;99.90;;;;;;4955972;29;20641;-78
2023/04/23 12:36:40;;;;;;;7.00;2.65;;;18.70;99.90;;;;;;4954993;29;20200;-78
2023/04/23 12:39:31;;;;;;;7.72;2.60;;;18.70;99.90;;;;;;4954007;28;20202;-78
2023/04/23 12:42:03;;;;;;;4.60;2.20;;;18.70;99.90;;;;;;4947413;29;20562;-77
2023/04/23 12:44:35;;;;;;;4.28;2.10;;;18.70;99.90;;;;;;4955833;29;20204;-78
2023/04/23 12:47:07;;;;;;;5.05;2.28;;;18.70;99.90;;;;;;4954632;29;20204;-78
2023/04/23 12:49:41;;;;;;;4.80;2.20;;;18.70;99.90;;;;;;4955169;29;20215;-78
2023/04/23 12:52:12;;;;;;;4.40;1.92;;;18.70;99.90;;;;;;4953607;28;20203;-78
2023/04/23 12:54:43;;;;;;;6.68;2.30;;;18.70;99.90;;;;;;4953102;28;20642;-78
2023/04/23 12:57:15;;;;;;;7.57;2.50;;;18.70;99.90;;;;;;4952238;29;20579;-78
2023/04/23 12:59:46;;;;;;;4.68;2.13;;;18.70;99.90;;;;;;4950724;29;20216;-78
2023/04/23 13:02:17;;;;;;;7.10;2.42;;;18.70;99.90;;;;;;4954252;29;20228;-78
2023/04/23 13:04:53;;;;;;;6.78;2.20;;;18.70;99.90;;;;;;4953674;29;20205;-78
2023/04/23 13:07:24;;;;;;;3.83;2.28;;;18.70;99.90;;;;;;4955549;29;20200;-78
2023/04/23 13:09:56;;;;;;;2.92;2.08;;;18.70;99.90;;;;;;4951522;29;20194;-78
2023/04/23 13:12:27;;;;;;;10.82;2.42;;;18.70;99.90;;;;;;4941408;29;20221;-78